Time;durP1;ratioP1;P1;durP2;ratioP2;P2;SDS_P1;SDS_P2;PMS_P1;PMS_P2;Temp;Humidity;BMP_temperature;BMP_pressure;BME280_temperature;BME280_humidity;BME280_pressure;Samples;Min_cycle;Max_cycle;Signal;HPM_P1;HPM_P2
2022/04/12 00:22:58;;;;;;;9.65;2.35;;;19.70;81.40;;;;;;5108488;27;20588;-73
2022/04/12 00:25:26;;;;;;;10.20;2.40;;;19.70;82.10;;;;;;5124807;27;20035;-72
2022/04/12 00:27:56;;;;;;;12.48;2.85;;;19.70;82.70;;;;;;5128709;27;20027;-72
2022/04/12 00:30:23;;;;;;;11.77;3.10;;;19.70;81.10;;;;;;5110842;28;20059;-73
2022/04/12 00:32:52;;;;;;;13.05;2.92;;;19.70;81.60;;;;;;5106193;27;20039;-73
2022/04/12 00:35:20;;;;;;;18.52;4.22;;;19.70;80.70;;;;;;5106868;28;20024;-70
2022/04/12 00:37:48;;;;;;;15.05;2.70;;;19.80;81.30;;;;;;5084320;28;20150;-71
2022/04/12 00:40:17;;;;;;;15.63;2.75;;;19.90;81.90;;;;;;5105873;27;20087;-71
2022/04/12 00:42:46;;;;;;;16.23;2.50;;;19.90;81.80;;;;;;5102074;27;20043;-69
2022/04/12 00:45:13;;;;;;;9.32;2.78;;;20.00;81.00;;;;;;5100616;27;20036;-69
2022/04/12 00:47:40;;;;;;;11.48;2.50;;;20.00;80.40;;;;;;5127924;27;20023;-71
2022/04/12 00:50:09;;;;;;;16.33;2.67;;;20.00;79.20;;;;;;5110028;27;20038;-71
2022/04/12 00:52:40;;;;;;;12.38;2.63;;;20.00;80.00;;;;;;5105574;27;20160;-76
2022/04/12 00:55:08;;;;;;;10.57;2.35;;;20.10;79.70;;;;;;5089184;28;20027;-69
2022/04/12 00:57:35;;;;;;;9.95;2.95;;;20.10;79.10;;;;;;5125776;27;20147;-76
2022/04/12 01:00:05;;;;;;;13.15;2.42;;;20.10;79.80;;;;;;5090792;28;20028;-72
2022/04/12 01:02:36;;;;;;;13.40;2.42;;;20.20;80.00;;;;;;5073450;27;20039;-71
2022/04/12 01:05:06;;;;;;;9.85;2.60;;;20.20;78.70;;;;;;5128660;27;20416;-70
2022/04/12 01:07:33;;;;;;;;;;;20.20;80.00;;;;;;5126373;27;20027;-73
2022/04/12 01:10:00;;;;;;;14.95;2.28;;;20.20;79.90;;;;;;5107212;28;19961;-73
2022/04/12 01:12:30;;;;;;;12.23;2.22;;;20.20;77.40;;;;;;5098130;28;20043;-73
2022/04/12 01:15:18;;;;;;;11.70;2.60;;;20.20;76.80;;;;;;5112822;27;20031;-73
2022/04/12 01:17:45;;;;;;;10.40;2.50;;;20.20;77.00;;;;;;5102562;27;20039;-72
2022/04/12 01:20:14;;;;;;;10.07;2.28;;;20.20;77.70;;;;;;5082645;28;20036;-72
2022/04/12 01:26:18;;;;;;;9.75;2.42;;;20.30;77.10;;;;;;5111768;27;20058;-72
2022/04/12 01:28:45;;;;;;;11.07;2.03;;;20.30;77.60;;;;;;5114622;27;20051;-72
2022/04/12 01:31:12;;;;;;;15.02;3.35;;;20.30;77.80;;;;;;5079206;28;20031;-73
2022/04/12 01:33:40;;;;;;;12.02;2.50;;;20.40;76.90;;;;;;5127551;28;20096;-73
2022/04/12 01:36:07;;;;;;;8.65;2.55;;;20.30;76.50;;;;;;5119764;28;20668;-73
2022/04/12 01:38:34;;;;;;;14.98;2.70;;;20.30;77.00;;;;;;5119495;28;20570;-73
2022/04/12 01:41:02;;;;;;;17.27;2.85;;;20.30;77.10;;;;;;5130117;28;20054;-74
2022/04/12 01:43:30;;;;;;;17.40;3.85;;;20.30;77.00;;;;;;5124897;28;20055;-72
2022/04/12 01:45:57;;;;;;;49.97;4.70;;;20.30;77.90;;;;;;5095573;28;20028;-73
2022/04/12 01:48:26;;;;;;;10.27;2.63;;;20.30;76.50;;;;;;5080036;28;20032;-73
2022/04/12 01:50:53;;;;;;;10.95;2.17;;;20.30;76.40;;;;;;5115373;28;20055;-73
2022/04/12 01:53:20;;;;;;;16.67;2.75;;;20.30;75.60;;;;;;5115087;28;20027;-73
2022/04/12 01:55:47;;;;;;;18.17;3.08;;;20.20;75.00;;;;;;5114862;28;20042;-73
2022/04/12 01:58:14;;;;;;;14.60;2.20;;;20.30;76.70;;;;;;5115104;28;20038;-74
2022/04/12 02:00:42;;;;;;;10.45;2.28;;;20.30;76.00;;;;;;5114813;28;20039;-74
2022/04/12 02:03:10;;;;;;;12.25;2.25;;;20.30;77.90;;;;;;5114729;28;20562;-73
2022/04/12 02:05:39;;;;;;;15.23;2.45;;;20.30;75.10;;;;;;5096737;28;20070;-73
2022/04/12 02:08:08;;;;;;;13.20;2.17;;;20.30;75.10;;;;;;5114516;28;20397;-73
2022/04/12 02:10:35;;;;;;;16.60;2.45;;;20.30;75.60;;;;;;5114781;28;20035;-72
2022/04/12 02:13:02;;;;;;;8.70;2.30;;;20.40;75.20;;;;;;5114738;28;20031;-73
2022/04/12 02:15:30;;;;;;;8.90;2.33;;;20.40;74.60;;;;;;5096860;28;20031;-72
2022/04/12 02:17:57;;;;;;;10.00;2.58;;;20.30;74.30;;;;;;5096556;28;20537;-71
2022/04/12 02:20:24;;;;;;;21.63;3.15;;;20.30;75.40;;;;;;5114579;28;20039;-72
2022/04/12 02:22:51;;;;;;;13.07;2.40;;;20.30;74.10;;;;;;5096413;28;20035;-74
2022/04/12 02:25:18;;;;;;;16.60;2.75;;;20.30;75.70;;;;;;5095944;28;20173;-72
2022/04/12 05:49:40;;;;;;;10.02;2.30;;;20.20;76.10;;;;;;5118460;27;20090;-75
2022/04/12 05:52:10;;;;;;;11.02;2.50;;;20.20;74.80;;;;;;5130165;28;20058;-75
2022/04/12 05:54:37;;;;;;;8.70;2.60;;;20.10;74.60;;;;;;5122385;28;20051;-73
2022/04/12 05:57:05;;;;;;;11.90;3.20;;;20.10;75.30;;;;;;5126254;28;20039;-73
2022/04/12 05:59:32;;;;;;;10.32;2.47;;;20.10;74.70;;;;;;5128845;28;20408;-73
2022/04/12 06:01:59;;;;;;;13.50;2.97;;;20.10;74.90;;;;;;5116626;28;20024;-73
2022/04/12 06:04:26;;;;;;;15.40;2.58;;;20.10;74.80;;;;;;5084074;28;20052;-72
2022/04/12 06:06:54;;;;;;;10.20;2.67;;;20.00;74.30;;;;;;5098890;28;20110;-73
2022/04/12 06:09:21;;;;;;;15.82;3.00;;;20.00;73.70;;;;;;5096878;28;20039;-74
2022/04/12 06:11:48;;;;;;;14.63;2.33;;;20.10;73.90;;;;;;5117215;28;20527;-74
2022/04/12 06:14:15;;;;;;;12.02;2.65;;;20.00;72.50;;;;;;5114073;28;20035;-73
2022/04/12 06:16:42;;;;;;;12.30;3.10;;;20.00;73.90;;;;;;5117803;28;20023;-73
2022/04/12 06:19:09;;;;;;;9.43;2.30;;;20.00;74.20;;;;;;5128732;27;20035;-73
2022/04/12 06:21:37;;;;;;;9.40;2.78;;;20.00;74.10;;;;;;5120441;28;20028;-74
2022/04/12 06:24:04;;;;;;;11.85;3.13;;;20.00;74.50;;;;;;5122738;28;20433;-73
2022/04/12 06:26:32;;;;;;;13.02;2.72;;;20.00;74.60;;;;;;5118131;28;20043;-69
2022/04/12 06:28:59;;;;;;;7.30;2.25;;;20.00;73.70;;;;;;5125504;27;20043;-68
2022/04/12 06:31:26;;;;;;;10.63;2.75;;;20.00;74.90;;;;;;5130211;27;20051;-70
2022/04/12 06:33:53;;;;;;;9.88;2.70;;;20.00;75.20;;;;;;5133724;27;20039;-70
2022/04/12 06:36:20;;;;;;;11.65;2.60;;;19.90;75.20;;;;;;5118802;27;20496;-69
2022/04/12 06:38:47;;;;;;;7.07;2.38;;;19.90;74.90;;;;;;5124149;27;20366;-70
2022/04/12 06:41:15;;;;;;;10.18;3.08;;;19.90;74.40;;;;;;5132959;27;20062;-71
2022/04/12 06:43:42;;;;;;;11.23;2.50;;;19.90;75.20;;;;;;5132417;27;20047;-69
2022/04/12 06:46:09;;;;;;;12.15;2.85;;;19.90;74.80;;;;;;5143681;27;20505;-70
2022/04/12 06:48:36;;;;;;;12.38;2.60;;;19.90;75.50;;;;;;5124105;27;20058;-69
2022/04/12 06:51:03;;;;;;;13.40;2.50;;;19.80;74.80;;;;;;5132411;27;20551;-70
2022/04/12 06:53:31;;;;;;;13.90;2.65;;;19.80;74.70;;;;;;5133585;27;20035;-70
2022/04/12 06:55:58;;;;;;;16.92;3.05;;;19.80;74.90;;;;;;5133614;27;20071;-69
2022/04/12 06:58:25;;;;;;;13.75;2.53;;;19.90;74.70;;;;;;5124091;27;20438;-70
2022/04/12 07:00:52;;;;;;;15.07;2.63;;;19.90;74.40;;;;;;5124697;27;20377;-69
2022/04/12 07:03:21;;;;;;;13.98;2.88;;;19.80;74.50;;;;;;5137270;27;20050;-69
2022/04/12 07:05:49;;;;;;;7.95;2.63;;;19.80;75.50;;;;;;5141964;27;20511;-68
2022/04/12 07:08:16;;;;;;;11.50;3.00;;;19.80;75.70;;;;;;5137670;27;20358;-68
2022/04/12 07:10:45;;;;;;;12.20;2.72;;;19.80;75.60;;;;;;5132549;27;20031;-68
2022/04/12 07:13:12;;;;;;;13.00;2.60;;;19.80;75.50;;;;;;5121844;27;20032;-68
2022/04/12 07:15:39;;;;;;;9.75;2.40;;;19.80;75.00;;;;;;5113080;28;20039;-69
2022/04/12 07:18:06;;;;;;;10.57;2.70;;;19.80;75.60;;;;;;5120127;27;20115;-70
2022/04/12 07:20:33;;;;;;;14.18;2.75;;;19.80;75.80;;;;;;5131711;27;20037;-70
2022/04/12 07:23:00;;;;;;;8.52;2.33;;;19.80;75.70;;;;;;5133950;27;20050;-70
2022/04/12 07:25:28;;;;;;;17.35;2.97;;;19.80;75.60;;;;;;5133660;27;20107;-70
2022/04/12 07:27:55;;;;;;;11.98;2.67;;;19.80;75.70;;;;;;5119762;27;20141;-69
2022/04/12 07:30:22;;;;;;;20.27;4.00;;;19.70;76.60;;;;;;5130027;27;20077;-70
2022/04/12 07:32:49;;;;;;;12.60;3.03;;;19.80;76.50;;;;;;5133485;27;20031;-71
2022/04/12 07:35:16;;;;;;;9.93;2.53;;;19.80;77.00;;;;;;5115435;27;20035;-69
2022/04/12 07:37:43;;;;;;;7.93;2.50;;;19.80;76.60;;;;;;5102229;28;20446;-70
2022/04/12 07:40:11;;;;;;;14.77;3.47;;;19.70;77.10;;;;;;5109578;27;20265;-69
2022/04/12 07:42:38;;;;;;;12.00;2.45;;;19.70;76.60;;;;;;5109173;27;20045;-70
2022/04/12 07:45:06;;;;;;;14.82;3.30;;;19.80;77.00;;;;;;5133285;27;20039;-70
2022/04/12 07:47:35;;;;;;;11.63;2.45;;;19.80;77.20;;;;;;5114735;27;20031;-70
2022/04/12 07:50:03;;;;;;;11.23;2.45;;;19.70;77.00;;;;;;5128092;27;20075;-70
2022/04/12 07:52:31;;;;;;;13.95;2.95;;;19.70;76.60;;;;;;5114511;27;20050;-70
2022/04/12 07:54:58;;;;;;;9.45;2.70;;;19.80;76.40;;;;;;5132763;27;20039;-70
2022/04/12 07:57:27;;;;;;;11.65;2.83;;;19.70;76.80;;;;;;5133281;27;20080;-70
2022/04/12 07:59:54;;;;;;;11.30;2.67;;;19.70;76.90;;;;;;5115137;27;20039;-70
2022/04/12 08:02:21;;;;;;;12.35;2.65;;;19.70;77.00;;;;;;5123352;27;20023;-69
2022/04/12 08:04:48;;;;;;;10.27;2.75;;;19.70;76.60;;;;;;5093851;28;20043;-69
2022/04/12 08:07:15;;;;;;;5.97;2.10;;;19.70;76.40;;;;;;5130684;27;20028;-70
2022/04/12 08:09:42;;;;;;;9.18;2.47;;;19.70;76.90;;;;;;5132078;27;20047;-69
2022/04/12 08:12:10;;;;;;;13.68;2.65;;;19.70;76.80;;;;;;5132837;27;20031;-70
2022/04/12 08:14:37;;;;;;;8.90;2.20;;;19.70;76.50;;;;;;5113974;27;20443;-70
2022/04/12 08:17:04;;;;;;;11.50;2.45;;;19.70;76.60;;;;;;5132395;27;20027;-71
2022/04/12 08:19:31;;;;;;;12.15;2.58;;;19.70;76.50;;;;;;5105354;28;20095;-68
2022/04/12 08:22:01;;;;;;;9.02;2.20;;;19.70;77.10;;;;;;5112414;28;20541;-70
2022/04/12 08:24:29;;;;;;;9.43;2.33;;;19.70;76.00;;;;;;5094409;28;20054;-70
2022/04/12 08:26:56;;;;;;;10.48;2.63;;;19.70;76.50;;;;;;5112286;28;20118;-69
2022/04/12 08:29:23;;;;;;;12.07;2.72;;;19.70;76.80;;;;;;5124270;27;20566;-71
2022/04/12 08:31:51;;;;;;;17.50;3.60;;;19.70;76.50;;;;;;5131704;27;20036;-70
2022/04/12 08:34:19;;;;;;;9.48;2.72;;;19.70;76.70;;;;;;5132423;27;20069;-69
2022/04/12 08:36:46;;;;;;;9.88;2.67;;;19.70;76.50;;;;;;5132366;27;20036;-69
2022/04/12 08:39:13;;;;;;;14.35;2.63;;;19.70;76.70;;;;;;5128610;27;20031;-70
2022/04/12 08:41:41;;;;;;;14.15;2.60;;;19.70;77.40;;;;;;5131367;27;20035;-71
2022/04/12 08:44:08;;;;;;;15.27;2.90;;;19.70;77.40;;;;;;5075954;28;20044;-73
2022/04/12 08:46:37;;;;;;;12.35;2.60;;;19.70;77.60;;;;;;5076555;28;20111;-76
2022/04/12 08:49:04;;;;;;;11.75;2.78;;;19.70;77.20;;;;;;5106654;27;20050;-72
2022/04/12 08:51:31;;;;;;;12.20;3.03;;;19.60;77.40;;;;;;5096570;27;20397;-70
2022/04/12 08:53:58;;;;;;;12.65;3.13;;;19.70;77.20;;;;;;5099269;28;20042;-69
2022/04/12 08:56:27;;;;;;;9.02;2.58;;;19.70;77.50;;;;;;5111929;28;20098;-68
2022/04/12 08:58:54;;;;;;;11.57;3.05;;;19.60;77.50;;;;;;5117616;27;20039;-70
2022/04/12 09:01:21;;;;;;;16.55;2.20;;;19.60;77.90;;;;;;5116618;27;20477;-70
2022/04/12 09:03:48;;;;;;;11.05;2.95;;;19.60;77.60;;;;;;5113444;27;20375;-70
2022/04/12 09:14:57;;;;;;;9.82;2.40;;;19.70;77.30;;;;;;5122223;27;20083;-66
2022/04/12 09:17:39;;;;;;;10.02;2.92;;;19.70;77.10;;;;;;5097260;27;20045;-68
2022/04/12 09:20:12;;;;;;;10.95;2.38;;;19.70;77.50;;;;;;5128967;27;20039;-67
2022/04/12 09:22:39;;;;;;;11.20;2.30;;;19.70;77.10;;;;;;5129231;27;20067;-66
2022/04/12 09:25:09;;;;;;;9.55;2.53;;;19.60;77.30;;;;;;5131950;27;20501;-66
2022/04/12 09:27:37;;;;;;;9.15;3.05;;;19.70;77.10;;;;;;5131272;27;20035;-67
2022/04/12 09:30:09;;;;;;;13.40;3.05;;;19.60;77.60;;;;;;5109014;28;20454;-67
2022/04/12 09:32:41;;;;;;;8.50;2.70;;;19.60;77.70;;;;;;5116243;27;20165;-66
2022/04/12 09:35:08;;;;;;;8.57;2.10;;;19.60;77.70;;;;;;5111717;28;20039;-67
2022/04/12 09:37:37;;;;;;;6.55;1.90;;;19.60;77.60;;;;;;5110655;28;20371;-67
2022/04/12 09:40:09;;;;;;;13.75;2.80;;;19.60;77.20;;;;;;5126235;28;20031;-68
2022/04/12 09:42:52;;;;;;;9.93;3.20;;;19.60;77.50;;;;;;5112171;28;20036;-67
2022/04/12 09:45:19;;;;;;;10.70;2.28;;;19.60;77.90;;;;;;5126795;28;20061;-66
2022/04/12 09:47:47;;;;;;;14.55;2.70;;;19.60;77.60;;;;;;5131614;28;20435;-67
2022/04/12 09:50:15;;;;;;;11.05;2.95;;;19.70;77.40;;;;;;5114461;28;20040;-68
2022/04/12 09:52:53;;;;;;;12.45;2.30;;;19.70;77.60;;;;;;5110791;28;20027;-68
2022/04/12 09:55:37;;;;;;;14.63;2.80;;;19.60;77.20;;;;;;5126223;28;20461;-67
2022/04/12 09:58:12;;;;;;;12.45;2.80;;;19.70;77.70;;;;;;5092775;28;20054;-67
2022/04/12 10:00:41;;;;;;;10.93;2.65;;;19.70;77.30;;;;;;5130485;28;20039;-67
2022/04/12 10:03:14;;;;;;;12.68;2.40;;;19.70;77.50;;;;;;5123369;28;20035;-67
2022/04/12 10:05:42;;;;;;;7.07;2.20;;;19.70;77.80;;;;;;5111929;28;20358;-67
2022/04/12 10:08:13;;;;;;;8.85;2.15;;;19.60;77.50;;;;;;5113130;27;20404;-68
2022/04/12 10:10:43;;;;;;;;;;;19.60;76.80;;;;;;5097747;27;20370;-67
2022/04/12 10:37:28;;;;;;;9.65;2.63;;;19.70;76.70;;;;;;5102671;28;20039;-68
2022/04/12 10:40:04;;;;;;;11.25;2.80;;;19.60;76.70;;;;;;5113410;28;20044;-69
2022/04/12 10:42:33;;;;;;;17.92;2.95;;;19.70;77.00;;;;;;5078595;28;20032;-68
2022/04/12 10:45:02;;;;;;;12.38;2.35;;;19.70;77.60;;;;;;5093362;28;20729;-68
2022/04/12 10:47:38;;;;;;;9.73;2.42;;;19.70;77.80;;;;;;5088536;28;20482;-69
2022/04/12 10:50:07;;;;;;;8.60;1.95;;;19.60;78.20;;;;;;5113797;28;20036;-68
2022/04/12 10:52:44;;;;;;;8.52;1.92;;;19.60;77.50;;;;;;5113622;28;20035;-68
2022/04/12 10:55:16;;;;;;;7.50;2.17;;;19.60;77.40;;;;;;5114121;28;20146;-69
2022/04/12 10:57:43;;;;;;;7.65;1.63;;;19.60;77.20;;;;;;5111464;28;20085;-68
2022/04/12 11:00:20;;;;;;;4.10;1.70;;;19.60;77.20;;;;;;5094681;28;20089;-69
2022/04/12 11:02:53;;;;;;;9.52;2.22;;;19.60;77.20;;;;;;5113807;28;20062;-69
2022/04/12 11:05:39;;;;;;;10.13;1.90;;;19.60;76.60;;;;;;5096827;28;20054;-69
2022/04/12 11:08:16;;;;;;;10.68;2.33;;;19.60;76.70;;;;;;5106846;28;20553;-68
2022/04/12 11:10:54;;;;;;;8.98;2.13;;;19.60;77.00;;;;;;5113224;28;20547;-68
2022/04/12 11:13:22;;;;;;;14.52;2.50;;;19.60;77.60;;;;;;5080027;28;20032;-69
2022/04/12 11:15:56;;;;;;;9.35;2.35;;;19.60;77.50;;;;;;5113664;28;20118;-69
2022/04/12 11:18:23;;;;;;;9.65;2.17;;;19.60;77.20;;;;;;5101428;28;20032;-68
2022/04/12 11:21:03;;;;;;;9.30;1.92;;;19.60;76.90;;;;;;5112154;28;20032;-69
2022/04/12 11:23:58;;;;;;;11.70;1.90;;;19.60;76.90;;;;;;5074646;28;20040;-68
2022/04/12 11:26:44;;;;;;;6.63;2.10;;;19.60;76.80;;;;;;5103631;28;20039;-69
2022/04/12 11:29:12;;;;;;;5.93;1.83;;;19.70;77.20;;;;;;5065802;28;20032;-68
2022/04/12 11:31:47;;;;;;;9.05;2.72;;;19.60;77.10;;;;;;5113138;28;20023;-68
2022/04/12 11:34:15;;;;;;;9.88;2.15;;;19.60;77.80;;;;;;5094903;28;20039;-68
2022/04/12 11:36:55;;;;;;;8.32;2.45;;;19.60;78.20;;;;;;5109085;28;20028;-68
2022/04/12 11:39:27;;;;;;;10.52;3.33;;;19.60;78.90;;;;;;5096987;27;20024;-68
2022/04/12 11:42:04;;;;;;;7.68;2.42;;;19.50;79.10;;;;;;5130844;27;20114;-68
2022/04/12 11:44:31;;;;;;;10.43;3.13;;;19.40;79.20;;;;;;5127897;27;20101;-68
2022/04/12 11:47:03;;;;;;;9.30;2.67;;;19.40;79.70;;;;;;5111885;28;20031;-67
2022/04/12 11:49:31;;;;;;;13.40;3.38;;;19.40;79.70;;;;;;5111727;28;20067;-70
2022/04/12 11:52:00;;;;;;;11.02;2.78;;;19.30;80.70;;;;;;5094277;28;20066;-69
2022/04/12 11:54:34;;;;;;;12.30;2.60;;;19.30;80.80;;;;;;5099053;27;20039;-69
2022/04/12 11:57:08;;;;;;;10.57;3.20;;;19.30;80.50;;;;;;5116168;27;20753;-68
2022/04/12 11:59:36;;;;;;;13.23;2.72;;;19.20;80.60;;;;;;5111436;28;20074;-68
2022/04/12 12:02:06;;;;;;;14.85;3.20;;;19.20;80.70;;;;;;5111979;28;20464;-67
2022/04/12 12:04:34;;;;;;;13.40;3.15;;;19.20;80.90;;;;;;5111350;28;20074;-68
2022/04/12 12:07:05;;;;;;;10.95;3.20;;;19.10;80.90;;;;;;5111177;28;20058;-67
2022/04/12 12:09:34;;;;;;;14.77;3.65;;;19.10;80.50;;;;;;5104699;27;20092;-68
2022/04/12 12:12:04;;;;;;;12.25;2.60;;;19.10;80.90;;;;;;5092208;28;20533;-67
2022/04/12 12:14:32;;;;;;;9.95;2.97;;;19.00;81.30;;;;;;5091171;28;20039;-67
2022/04/12 12:17:05;;;;;;;10.55;3.25;;;19.00;81.10;;;;;;5092318;28;20036;-67
2022/04/12 12:19:33;;;;;;;16.67;3.53;;;19.00;81.10;;;;;;5099474;28;20035;-68
2022/04/12 12:22:02;;;;;;;19.88;3.78;;;18.90;81.10;;;;;;5109214;27;20070;-68
2022/04/12 12:24:30;;;;;;;12.15;3.03;;;18.90;81.40;;;;;;5108202;28;20055;-70
2022/04/12 12:26:57;;;;;;;13.73;2.85;;;18.90;81.40;;;;;;5111638;28;20389;-68
2022/04/12 12:29:27;;;;;;;11.15;2.88;;;18.80;81.30;;;;;;5091988;28;20063;-69
2022/04/12 12:31:57;;;;;;;12.43;2.88;;;18.90;80.90;;;;;;5111772;28;20032;-68
2022/04/12 12:34:31;;;;;;;13.65;3.08;;;18.80;80.60;;;;;;5111431;28;20031;-68
2022/04/12 12:36:59;;;;;;;5.80;2.17;;;18.80;81.10;;;;;;5120051;27;20472;-69
2022/04/12 12:39:30;;;;;;;13.43;3.30;;;18.80;80.70;;;;;;5110327;28;20439;-69
2022/04/12 12:41:57;;;;;;;9.50;2.67;;;18.80;80.90;;;;;;5102235;28;20101;-69
2022/04/12 12:44:25;;;;;;;9.73;3.10;;;18.80;81.10;;;;;;5110648;27;20043;-69
2022/04/12 12:46:59;;;;;;;14.13;3.47;;;18.80;81.10;;;;;;5119011;27;20039;-69
2022/04/12 12:49:35;;;;;;;13.52;3.30;;;18.80;81.10;;;;;;5073477;28;20097;-68
2022/04/12 12:52:03;;;;;;;9.65;3.03;;;18.80;81.50;;;;;;5056515;28;20486;-69
2022/04/12 12:54:31;;;;;;;11.95;2.95;;;18.80;81.80;;;;;;5094039;28;20040;-69
2022/04/12 12:56:58;;;;;;;18.60;3.50;;;18.70;81.50;;;;;;5111193;28;20089;-69
2022/04/12 12:59:35;;;;;;;18.48;3.88;;;18.70;81.50;;;;;;5110900;28;20031;-69
2022/04/12 13:02:10;;;;;;;12.13;3.22;;;18.70;81.80;;;;;;5079203;28;20388;-70
2022/04/12 13:04:38;;;;;;;10.10;3.13;;;18.70;81.50;;;;;;5104611;28;20383;-69
2022/04/12 13:07:13;;;;;;;8.05;2.50;;;18.70;81.50;;;;;;5055790;28;20040;-69
2022/04/12 13:09:45;;;;;;;12.93;2.90;;;18.70;81.40;;;;;;5082964;28;20040;-69
2022/04/12 13:12:13;;;;;;;9.35;2.80;;;18.70;81.50;;;;;;5092513;28;20526;-69
2022/04/12 13:14:44;;;;;;;11.63;2.80;;;18.60;81.60;;;;;;5103712;28;20489;-69
2022/04/12 13:17:11;;;;;;;20.45;3.22;;;18.60;81.80;;;;;;5105885;28;20062;-69
2022/04/12 13:19:39;;;;;;;13.15;3.05;;;18.60;82.00;;;;;;5072667;28;20480;-69
2022/04/12 13:22:06;;;;;;;10.73;2.60;;;18.60;82.20;;;;;;5090917;28;20143;-69
2022/04/12 13:24:34;;;;;;;13.52;2.70;;;18.60;82.10;;;;;;5083276;28;20572;-69
2022/04/12 13:27:01;;;;;;;10.85;2.75;;;18.60;82.20;;;;;;5076424;28;20063;-69
2022/04/12 13:29:28;;;;;;;9.52;2.58;;;18.50;82.30;;;;;;5108943;28;20128;-69
2022/04/12 13:31:55;;;;;;;13.02;2.95;;;18.50;82.40;;;;;;5099484;28;20078;-69
2022/04/12 13:34:23;;;;;;;11.80;2.67;;;18.50;82.40;;;;;;5098835;28;20056;-69
2022/04/12 13:36:50;;;;;;;17.33;2.83;;;18.50;82.50;;;;;;5099088;28;20039;-69
2022/04/12 13:39:17;;;;;;;18.35;3.13;;;18.50;82.30;;;;;;5110805;28;20118;-69
2022/04/12 13:41:44;;;;;;;8.82;2.78;;;18.40;82.50;;;;;;5075501;28;20028;-69
2022/04/12 13:44:12;;;;;;;12.10;2.80;;;18.40;82.50;;;;;;5103641;28;20036;-69
2022/04/12 13:46:39;;;;;;;11.15;2.58;;;18.40;82.30;;;;;;5090317;28;20024;-69
2022/04/12 13:49:06;;;;;;;10.18;2.90;;;18.40;82.30;;;;;;5072654;28;20035;-69
2022/04/12 13:51:33;;;;;;;11.48;3.05;;;18.40;82.20;;;;;;5073006;28;20416;-68
2022/04/12 13:54:01;;;;;;;14.18;3.17;;;18.40;82.30;;;;;;5094143;28;20031;-69
2022/04/12 13:56:28;;;;;;;9.73;2.70;;;18.50;82.20;;;;;;5110674;28;20035;-69
2022/04/12 13:58:55;;;;;;;11.90;2.92;;;18.50;81.50;;;;;;5069848;28;20064;-69
2022/04/12 14:01:22;;;;;;;10.85;2.70;;;18.50;81.90;;;;;;5072286;28;20083;-70
2022/04/12 14:03:49;;;;;;;11.00;2.80;;;18.50;81.80;;;;;;5095315;28;20050;-69
2022/04/12 14:06:17;;;;;;;9.52;2.97;;;18.50;82.10;;;;;;5092392;28;20043;-69
2022/04/12 14:08:44;;;;;;;8.57;2.95;;;18.50;82.30;;;;;;5091709;28;20073;-69
2022/04/12 14:11:12;;;;;;;7.25;2.42;;;18.50;82.20;;;;;;5102361;28;20027;-69
2022/04/12 14:13:44;;;;;;;9.63;2.60;;;18.50;82.10;;;;;;5110761;28;20032;-69
2022/04/12 14:16:15;;;;;;;9.23;2.58;;;18.50;82.00;;;;;;5109936;28;20012;-69
2022/04/12 14:18:43;;;;;;;9.73;2.65;;;18.50;82.40;;;;;;5110067;28;20120;-69
2022/04/12 14:21:10;;;;;;;10.35;2.60;;;18.50;82.20;;;;;;5061538;28;20477;-69
2022/04/12 14:23:38;;;;;;;13.93;2.90;;;18.50;82.60;;;;;;5085197;28;20036;-69
2022/04/12 14:26:05;;;;;;;11.38;2.70;;;18.50;82.80;;;;;;5090330;28;20063;-69
2022/04/12 14:28:34;;;;;;;9.93;2.90;;;18.40;82.60;;;;;;5091918;28;20082;-69
2022/04/12 14:31:01;;;;;;;10.88;2.80;;;18.40;82.20;;;;;;5106498;28;20089;-69
2022/04/12 14:33:29;;;;;;;12.75;2.92;;;18.40;82.30;;;;;;5109891;28;20035;-69
2022/04/12 14:35:56;;;;;;;8.40;2.88;;;18.40;82.60;;;;;;5109664;28;20036;-69
2022/04/12 14:38:23;;;;;;;11.98;3.38;;;18.40;82.30;;;;;;5100801;28;20040;-69
2022/04/12 14:40:56;;;;;;;12.20;2.72;;;18.40;82.60;;;;;;5080368;28;20070;-69
2022/04/12 14:43:24;;;;;;;11.90;2.47;;;18.40;82.70;;;;;;5092869;28;20042;-68
2022/04/12 14:45:51;;;;;;;8.35;2.90;;;18.40;82.80;;;;;;5109431;28;20097;-70
2022/04/12 14:48:19;;;;;;;13.40;2.92;;;18.40;82.90;;;;;;5108730;28;20042;-69
2022/04/12 14:50:47;;;;;;;7.95;2.63;;;18.40;82.80;;;;;;5098072;28;20040;-68
2022/04/12 14:53:15;;;;;;;18.13;3.28;;;18.40;82.90;;;;;;5074484;28;20497;-68
2022/04/12 14:55:46;;;;;;;10.05;2.90;;;18.40;82.40;;;;;;5096910;28;20578;-69
2022/04/12 14:58:13;;;;;;;9.38;2.60;;;18.40;82.70;;;;;;5095726;28;20028;-69
2022/04/12 15:00:40;;;;;;;9.65;2.22;;;18.40;82.50;;;;;;5083934;28;20028;-68
2022/04/12 15:03:07;;;;;;;8.07;2.33;;;18.40;82.30;;;;;;5113904;28;20413;-68
2022/04/12 15:05:37;;;;;;;7.32;2.30;;;18.40;82.20;;;;;;5113742;28;20039;-69
2022/04/12 15:08:08;;;;;;;11.52;2.70;;;18.30;82.20;;;;;;5075249;28;20107;-69
2022/04/12 15:10:36;;;;;;;9.85;2.83;;;18.40;82.20;;;;;;5087868;28;20509;-69
2022/04/12 15:13:08;;;;;;;13.20;2.30;;;18.40;82.40;;;;;;5091217;28;20028;-69
2022/04/12 15:15:44;;;;;;;8.77;2.45;;;18.40;82.40;;;;;;5075910;28;20078;-68
2022/04/12 15:18:11;;;;;;;13.05;2.60;;;18.40;82.30;;;;;;5075845;28;20426;-68
2022/04/12 15:20:38;;;;;;;16.08;2.92;;;18.40;82.30;;;;;;5087493;28;20040;-68
2022/04/12 15:23:06;;;;;;;11.38;2.78;;;18.40;82.50;;;;;;5113353;28;20102;-69
2022/04/12 15:25:33;;;;;;;13.23;2.95;;;18.40;82.80;;;;;;5113049;28;20040;-69
2022/04/12 15:28:00;;;;;;;11.98;2.50;;;18.50;82.40;;;;;;5113174;28;20059;-69
2022/04/12 15:30:28;;;;;;;12.80;2.72;;;18.50;82.80;;;;;;5101443;28;20394;-69
2022/04/12 15:32:55;;;;;;;11.40;2.58;;;18.40;82.20;;;;;;5092468;28;20031;-69
2022/04/12 15:35:22;;;;;;;15.20;2.83;;;18.50;82.50;;;;;;5092573;28;20032;-69
2022/04/12 15:37:49;;;;;;;8.93;2.80;;;18.50;82.50;;;;;;5079527;28;20041;-69
2022/04/12 15:40:17;;;;;;;12.80;3.20;;;18.40;82.50;;;;;;5072497;28;20024;-68
2022/04/12 15:42:47;;;;;;;10.40;3.00;;;18.50;82.80;;;;;;5054255;28;20071;-68
2022/04/12 15:45:14;;;;;;;15.98;2.67;;;18.50;83.20;;;;;;5071809;28;20384;-69
2022/04/12 15:47:41;;;;;;;10.73;2.40;;;18.50;83.70;;;;;;5071999;28;20496;-69
2022/04/12 15:50:09;;;;;;;8.18;2.30;;;18.50;82.90;;;;;;5072533;28;20498;-69
2022/04/12 15:52:36;;;;;;;8.80;2.03;;;18.40;82.20;;;;;;5071892;28;20051;-69
2022/04/12 15:55:03;;;;;;;9.25;2.50;;;18.40;82.20;;;;;;5075000;28;20070;-69
2022/04/12 15:57:31;;;;;;;7.38;2.70;;;18.40;82.40;;;;;;5091959;28;20032;-69
2022/04/12 15:59:58;;;;;;;8.50;2.85;;;18.40;82.10;;;;;;5091422;28;20043;-69
2022/04/12 16:02:25;;;;;;;9.10;2.47;;;18.30;82.10;;;;;;5092160;28;20028;-69
2022/04/12 16:04:52;;;;;;;10.68;2.58;;;18.40;82.60;;;;;;5091477;28;20050;-68
2022/04/12 16:07:19;;;;;;;7.07;2.13;;;18.30;82.10;;;;;;5087277;28;20027;-69
2022/04/12 16:09:46;;;;;;;7.82;2.38;;;18.30;82.00;;;;;;5080219;28;20052;-69
2022/04/12 16:12:14;;;;;;;7.15;2.75;;;18.30;81.80;;;;;;5071845;28;20036;-68
2022/04/12 16:14:41;;;;;;;9.30;2.67;;;18.30;82.30;;;;;;5071883;28;20033;-69
2022/04/12 16:17:10;;;;;;;4.50;2.20;;;18.30;82.40;;;;;;5073684;28;20032;-69
2022/04/12 16:19:39;;;;;;;9.85;2.72;;;18.20;82.00;;;;;;5081443;28;20540;-69
2022/04/12 16:22:06;;;;;;;7.75;2.60;;;18.20;81.80;;;;;;5091681;28;20044;-68
2022/04/12 16:24:33;;;;;;;10.07;2.55;;;18.20;82.00;;;;;;5092525;28;20091;-69
2022/04/12 16:27:02;;;;;;;9.45;2.63;;;18.20;82.20;;;;;;5073588;28;20039;-69
2022/04/12 16:29:30;;;;;;;11.02;2.72;;;18.10;81.60;;;;;;5073111;28;20060;-69
2022/04/12 16:31:57;;;;;;;9.13;2.38;;;18.10;81.50;;;;;;5073284;28;20075;-69
2022/04/12 16:34:25;;;;;;;12.18;2.72;;;18.10;82.40;;;;;;5057060;28;20040;-68
2022/04/12 16:36:52;;;;;;;8.73;2.75;;;18.10;82.10;;;;;;5091029;28;20032;-69
2022/04/12 16:39:19;;;;;;;11.05;2.50;;;18.00;81.40;;;;;;5084407;28;20032;-69
2022/04/12 16:41:46;;;;;;;7.60;2.72;;;18.00;81.30;;;;;;5070913;28;20024;-68
2022/04/12 16:44:13;;;;;;;10.43;2.47;;;18.00;81.50;;;;;;5070907;28;20037;-68
2022/04/12 16:46:41;;;;;;;13.43;2.75;;;18.00;81.60;;;;;;5070968;28;20032;-68
2022/04/12 16:49:08;;;;;;;7.05;2.50;;;18.00;82.60;;;;;;5075163;28;20029;-69
2022/04/12 16:51:35;;;;;;;8.38;2.60;;;18.00;82.60;;;;;;5073361;28;20036;-69
2022/04/12 16:54:03;;;;;;;8.27;2.42;;;18.00;82.50;;;;;;5085509;28;20386;-68
2022/04/12 16:56:30;;;;;;;6.85;2.70;;;18.00;82.40;;;;;;5057651;28;20032;-69
2022/04/12 16:59:00;;;;;;;7.07;2.50;;;17.90;82.00;;;;;;5073471;28;20071;-69
2022/04/12 17:01:27;;;;;;;7.55;2.30;;;17.90;82.20;;;;;;5073226;28;20135;-68
2022/04/12 17:03:54;;;;;;;11.20;2.53;;;17.90;82.20;;;;;;5073084;28;20109;-68
2022/04/12 17:06:21;;;;;;;7.00;2.30;;;17.90;82.00;;;;;;5091007;28;20032;-69
2022/04/12 17:08:48;;;;;;;9.55;2.50;;;17.80;82.20;;;;;;5089272;28;20039;-68